Featured Flight

MET332 - Boston to Los Angeles

Airbus A321-232
657MT - Sharklet Equipped
5 hrs 40 mins
2267 nm
Scheduled - Daily

Bid/PiRep Status

Bid was submitted on Jan 10 2017.

No PiRep on file for this bid.

Departure

Departing from
Boston (BOS)
Departure gate
Scheduled Departure
GMT 1200
Local 0700
METAR KBOS 222354Z 09006KT 10SM FEW250 06/03 A2991 RMK AO2 SLP126 T00560028 10133 20056 51004
TAF KBOS 222336Z 2300/2406 07006KT P6SM FEW080 FEW250 FM230100 15004KT P6SM FEW060 FM230600 23004KT P6SM FEW010 SCT050 FM231600 21007KT P6SM SCT250 FM232100 21011KT P6SM SCT250 FM240300 23008KT P6SM SCT010
  • No charts available

Arrival

Arriving at
Los Angeles (LAX)
Arrival gate
Scheduled Arrival
GMT 1740
Local 0940
METAR KLAX 222353Z 27022KT 10SM FEW015 FEW060 16/09 A3002 RMK AO2 SLP166 T01560094 10161 20144 56019
TAF KLAX 222339Z 2300/2406 27014G22KT P6SM SCT050 FM230330 35014G20KT P6SM SKC FM230800 34008KT P6SM SKC FM231600 35010KT P6SM SKC WS020/35030KT FM232100 26014G20KT P6SM SKC

Route Map

Planning Resources

MHT CAM TULEG SIBKI PENDO VIXIS JAKEY JUVAG CESNA Q505 HEMDI DPR J32 BOY J713 TCH ILC HEC
GLYDE BAF J77 SAX J60 ETX RAV J64 MAINE J64 LMN J64 HEC ZIGGY4
MHT SYR J547 BUF J94 ECK J16 MCW J148 ONL J114 DVV HBU J128 TBC J64 HEC ZIGGY4
GLYDE BAF J77 SAX J80 ETX J60 DJB J60 IOW LNK J60 BCE J60 HEC ZIGGY4
LOGAN4 CTR HEC ZIGGY4
Route:
OFP Layout:
Units:
Detailed Navlog:
ETOPS Planning:
Plan Stepclimbs:
Runway Analysis:
Include NOTAMS:
FIR NOTAMS:
Flight Maps:

Return Flights

MET331
Airbus A321-232
1830 GMT
MET335
Airbus A321-232
0630 GMT
MET338
Airbus A321-232
1500 GMT
MET603
Boeing 787-8
1600 GMT

Popularity

Hub Current Bids PiReps this month Total PiReps
KMCI 0 0 0
KLAX 0 0 0
KBOS 0 0 0